ENXV weather

Varg Platform
Norway

Public forecast

Using degrees Celsius for public forecast. Weather courtesy of forecast.io.

METAR (pilot weather report)

Closest report is Sleipner A Platform, 17.4 nm (32.2 km) N. Retrieved 2019/05/21 16:20 UTC (32 minutes ago):

ENSL 211620Z 31023KT 9999 BKN010 11/09 Q1014 W08/S3

TAF (pilot weather forecast)

Closest forecast is Stavanger Airport Sola, 127.1 nm (235.3 km) ENE. Retrieved 2019/05/21 12:59 UTC (4 hours ago):

TAF ENZV 211100Z 2112/2212 32010KT 9999 FEW025 BKN090 PROB30 TEMPO 2115/2118 SHRA FEW010 SCT020CB TEMPO 2120/2124 2000 BR BKN004 TEMPO 2200/2212 2000 SHRA BKN006 SCT020CB